AirNav   Everest Fuels
 
 584 users online  

CT76 Chase Manhattan Bank of CT Heliport
Trumbull, Connecticut, USA

GOING TO TRUMBULL?


FAA INFORMATION EFFECTIVE 18 JUNE 2020

Location

FAA Identifier: CT76
Lat/Long: 41-14-32.3470N 073-09-01.3990W
41-14.539117N 073-09.023317W
41.2423186,-73.1503886
(estimated)
Elevation: 200 ft. / 61 m (estimated)
Variation: 14W (1985)
From city: 2 miles E of TRUMBULL, CT
Time zone: UTC -4 (UTC -5 during Standard Time)
Zip code: 06611

Heliport Operations

Heliport use: Private use. Permission required prior to landing
Activation date: 01/1979
Control tower: no
ARTCC: NEW YORK CENTER
FSS: BRIDGEPORT FLIGHT SERVICE STATION
Attendance: UNATNDD
Wind indicator: yes
Segmented circle: no
Lights: FOR HELIPAD PERIMETER LGTS CALL 203-385-4830.

Heliport Communications

WX ASOS at BDR (5 nm S): 119.15 (203-381-9453)
WX ASOS at HVN (12 nm E): PHONE 203-466-6205
WX AWOS-3PT at OXC (14 nm N): 132.975 (203-262-1190)
WX ASOS at DXR (17 nm NW): 127.75 (203-791-8227)

Nearby radio navigation aids

VOR radial/distance  VOR name  Freq  Var
BDRr359/5.0BRIDGEPORT VOR/DME108.8012W
CMKr109/19.6CARMEL VOR/DME116.6012W
MADr271/21.1MADISON VOR/DME110.4013W
CCCr333/24.6CALVERTON VOR/DME117.2013W
DPKr026/27.9DEER PARK VOR/DME117.7012W
HFDr242/36.2HARTFORD VOR/DME114.9013W
PWLr159/37.6PAWLING VOR/DME114.3012W
IGNr142/39.5KINGSTON VOR/DME117.6012W

 
NDB name  Hdg/Dist  Freq  Var  ID
BABYLON031/35.827514WBBN -... -... -.

Heliport Services

Runway Information

Helipad H1

Dimensions: 325 x 140 ft. / 99 x 43 m
Surface: turf
Runway edge lights: low intensity
Operational restrictions: APCH NE AND DEPT SW PARRALLEL TO RTE 8.
Latitude: 41-14.539117N
Longitude: 073-09.023317W
Elevation: 200.0 ft.
Traffic pattern: leftleft

Heliport Ownership and Management from official FAA records

Ownership: Privately-owned
Owner: CHASE MANHATTAN BANK OF CT
TRUMBULL INDUSTRIAL PARK
TRUMBULL, CT 06611
Phone 203-385-4830
Manager: HARRY RICHARDSON
20 NUTMEG DRIVE
TRUMBULL, CT 06611
Phone 203-385-4950
VICE PRESIDENT.

Additional Remarks

A52-H1 WIRES TO NORTH & EAST.
FOR CD CTC NEW YORK APCH AT 516-683-2449.

Instrument Procedures

There are no published instrument procedures at CT76.

Some nearby airports with instrument procedures:

KBDR - Igor I Sikorsky Memorial Airport (5 nm S)
KHVN - Tweed-New Haven Airport (12 nm E)
KOXC - Waterbury-Oxford Airport (14 nm N)
KDXR - Danbury Municipal Airport (17 nm NW)
KMMK - Meriden Markham Municipal Airport (22 nm NE)
 
Loc | Ops | Rwys | IFR | FBO | Links
Com | Nav | Svcs | Stats | Notes

Silver City Flying Club
 
Area around CT76 (Chase Manhattan Bank of CT Heliport)
 
Road maps at: MapQuest Bing Google
 
Aerial photo
No photo
 
Sectional chart

 
Airport distance calculator
Flying to Chase Manhattan Bank of CT Heliport? Find the distance to fly.

From to CT76

Sunrise and sunset
Times for 14-Jul-2020
 Local
(UTC-4)
 Zulu
(UTC)
Morning civil twilight05:0109:01
Sunrise05:3409:34
Sunset20:2300:23
Evening civil twilight20:5600:56

Current date and time
Zulu (UTC)  14-Jul-2020 11:19:23
Local (UTC-4)  14-Jul-2020 07:19:23
 
METAR
KBDR 
5nm S 
141052Z 33010KT 10SM CLR 22/16 A2988 RMK AO2 SLP119 T02220161
KHVN 
13nm E 
141053Z 33005KT 10SM CLR 23/18 A2988 RMK AO2 SLP118 T02280178
KOXC 
14nm N 
141051Z VRB03KT 10SM CLR 19/17 A2993 RMK AO2 SLP141 T01940167
KDXR 
17nm NW 
141053Z 27003KT 10SM CLR 19/16 A2993 RMK AO2 SLP132 T01940161
TAF
KBDR 
5nm S 
140831Z 1409/1506 31005KT P6SM FEW070 FM141400 31008KT P6SM SCT060 FM141800 29009KT P6SM BKN070 FM142300 33005KT P6SM BKN070 FM150300 03006KT P6SM SCT060
NOTAMs
Click for the latest NOTAMs
NOTAMs are issued by the DoD/FAA and will open in a separate window not controlled by AirNav.

 

 
 

Would you like to see your business listed on this page?

 If your business provides an interesting product or service to pilots, flight crews, aircraft, or users of the Chase Manhattan Bank of CT Heliport, you should consider listing it here.  To start the listing process, click on the button below
 
Add a business
 

Other Pages about Chase Manhattan Bank of CT Heliport

Update a link
 
Copyright © AirNav, LLC. All rights reserved. Privacy Policy  Contact